sensor_id;sensor_type;location;lat;lon;timestamp;P1;durP1;ratioP1;P2;durP2;ratioP2
37047;SDS011;23227;48.780;9.210;2023-06-19T00:03:41;5.22;;;3.78;;
37047;SDS011;23227;48.780;9.210;2023-06-19T00:09:47;8.55;;;3.97;;
37047;SDS011;23227;48.780;9.210;2023-06-19T00:12:50;5.40;;;3.42;;
37047;SDS011;23227;48.780;9.210;2023-06-19T00:15:53;5.85;;;3.88;;
37047;SDS011;23227;48.780;9.210;2023-06-19T00:18:57;8.50;;;3.75;;
37047;SDS011;23227;48.780;9.210;2023-06-19T00:22:00;7.72;;;4.43;;
37047;SDS011;23227;48.780;9.210;2023-06-19T00:25:04;4.50;;;3.50;;
37047;SDS011;23227;48.780;9.210;2023-06-19T00:28:07;10.02;;;3.75;;
37047;SDS011;23227;48.780;9.210;2023-06-19T00:31:12;4.85;;;3.17;;
37047;SDS011;23227;48.780;9.210;2023-06-19T00:34:16;7.53;;;3.80;;
37047;SDS011;23227;48.780;9.210;2023-06-19T00:40:26;6.65;;;3.83;;
37047;SDS011;23227;48.780;9.210;2023-06-19T00:43:30;6.25;;;3.50;;
37047;SDS011;23227;48.780;9.210;2023-06-19T00:49:35;3.80;;;3.08;;
37047;SDS011;23227;48.780;9.210;2023-06-19T00:52:38;7.70;;;3.22;;
37047;SDS011;23227;48.780;9.210;2023-06-19T00:55:43;5.82;;;3.38;;
37047;SDS011;23227;48.780;9.210;2023-06-19T00:58:46;5.07;;;3.17;;
37047;SDS011;23227;48.780;9.210;2023-06-19T01:04:52;6.65;;;3.97;;
37047;SDS011;23227;48.780;9.210;2023-06-19T01:07:57;4.30;;;3.00;;
37047;SDS011;23227;48.780;9.210;2023-06-19T01:11:03;4.13;;;3.40;;
37047;SDS011;23227;48.780;9.210;2023-06-19T01:14:26;3.60;;;3.03;;
37047;SDS011;23227;48.780;9.210;2023-06-19T01:17:31;4.53;;;3.17;;
37047;SDS011;23227;48.780;9.210;2023-06-19T01:20:34;6.55;;;3.97;;
37047;SDS011;23227;48.780;9.210;2023-06-19T01:23:39;6.47;;;3.90;;
37047;SDS011;23227;48.780;9.210;2023-06-19T01:26:42;5.88;;;3.40;;
37047;SDS011;23227;48.780;9.210;2023-06-19T01:29:47;4.78;;;4.03;;
37047;SDS011;23227;48.780;9.210;2023-06-19T01:32:50;8.60;;;3.58;;
37047;SDS011;23227;48.780;9.210;2023-06-19T01:35:56;4.50;;;3.53;;
37047;SDS011;23227;48.780;9.210;2023-06-19T01:42:03;4.87;;;3.60;;
37047;SDS011;23227;48.780;9.210;2023-06-19T01:45:07;8.27;;;3.73;;
37047;SDS011;23227;48.780;9.210;2023-06-19T01:48:11;5.30;;;3.43;;
37047;SDS011;23227;48.780;9.210;2023-06-19T01:51:13;5.80;;;3.88;;
37047;SDS011;23227;48.780;9.210;2023-06-19T01:54:17;4.17;;;3.47;;
37047;SDS011;23227;48.780;9.210;2023-06-19T01:57:20;9.17;;;4.20;;
37047;SDS011;23227;48.780;9.210;2023-06-19T02:00:24;6.63;;;3.57;;
37047;SDS011;23227;48.780;9.210;2023-06-19T02:03:26;5.63;;;3.38;;
37047;SDS011;23227;48.780;9.210;2023-06-19T02:06:29;6.55;;;3.50;;
37047;SDS011;23227;48.780;9.210;2023-06-19T02:09:34;4.60;;;3.33;;
37047;SDS011;23227;48.780;9.210;2023-06-19T02:12:37;6.70;;;3.07;;
37047;SDS011;23227;48.780;9.210;2023-06-19T02:15:40;6.73;;;2.80;;
37047;SDS011;23227;48.780;9.210;2023-06-19T02:18:43;9.73;;;3.40;;
37047;SDS011;23227;48.780;9.210;2023-06-19T02:21:45;4.45;;;3.33;;
37047;SDS011;23227;48.780;9.210;2023-06-19T02:24:50;4.43;;;3.28;;
37047;SDS011;23227;48.780;9.210;2023-06-19T02:27:52;7.03;;;3.03;;
37047;SDS011;23227;48.780;9.210;2023-06-19T02:30:55;6.65;;;3.17;;
37047;SDS011;23227;48.780;9.210;2023-06-19T02:37:00;7.27;;;3.33;;
37047;SDS011;23227;48.780;9.210;2023-06-19T02:40:05;4.38;;;2.85;;
37047;SDS011;23227;48.780;9.210;2023-06-19T02:43:10;5.17;;;3.33;;
37047;SDS011;23227;48.780;9.210;2023-06-19T02:49:16;3.80;;;2.60;;
37047;SDS011;23227;48.780;9.210;2023-06-19T02:52:18;5.10;;;3.22;;
37047;SDS011;23227;48.780;9.210;2023-06-19T02:55:22;3.40;;;2.67;;
37047;SDS011;23227;48.780;9.210;2023-06-19T02:58:25;4.60;;;2.77;;
37047;SDS011;23227;48.780;9.210;2023-06-19T03:01:29;4.00;;;2.50;;
37047;SDS011;23227;48.780;9.210;2023-06-19T03:04:31;5.63;;;2.50;;
37047;SDS011;23227;48.780;9.210;2023-06-19T03:10:38;3.33;;;2.58;;
37047;SDS011;23227;48.780;9.210;2023-06-19T03:13:44;2.97;;;2.53;;
37047;SDS011;23227;48.780;9.210;2023-06-19T03:16:50;3.80;;;2.40;;
37047;SDS011;23227;48.780;9.210;2023-06-19T03:19:53;4.93;;;2.80;;
37047;SDS011;23227;48.780;9.210;2023-06-19T03:26:00;2.90;;;2.60;;
37047;SDS011;23227;48.780;9.210;2023-06-19T03:29:03;2.53;;;2.33;;
37047;SDS011;23227;48.780;9.210;2023-06-19T03:32:06;3.92;;;2.45;;
37047;SDS011;23227;48.780;9.210;2023-06-19T03:35:09;3.07;;;2.10;;
37047;SDS011;23227;48.780;9.210;2023-06-19T03:38:12;3.40;;;2.40;;
37047;SDS011;23227;48.780;9.210;2023-06-19T03:41:16;5.63;;;2.60;;
37047;SDS011;23227;48.780;9.210;2023-06-19T03:44:19;2.57;;;2.20;;
37047;SDS011;23227;48.780;9.210;2023-06-19T03:47:22;3.95;;;2.40;;
37047;SDS011;23227;48.780;9.210;2023-06-19T03:53:27;3.03;;;2.20;;
37047;SDS011;23227;48.780;9.210;2023-06-19T03:56:31;2.42;;;2.10;;
37047;SDS011;23227;48.780;9.210;2023-06-19T03:59:34;2.93;;;2.23;;
37047;SDS011;23227;48.780;9.210;2023-06-19T04:02:37;5.78;;;2.28;;
37047;SDS011;23227;48.780;9.210;2023-06-19T04:05:40;2.60;;;2.03;;
37047;SDS011;23227;48.780;9.210;2023-06-19T04:08:43;3.37;;;2.30;;
37047;SDS011;23227;48.780;9.210;2023-06-19T04:14:50;4.83;;;1.90;;
37047;SDS011;23227;48.780;9.210;2023-06-19T04:17:53;3.28;;;1.98;;
37047;SDS011;23227;48.780;9.210;2023-06-19T04:20:56;3.33;;;2.20;;
37047;SDS011;23227;48.780;9.210;2023-06-19T04:23:58;3.08;;;2.03;;
37047;SDS011;23227;48.780;9.210;2023-06-19T04:30:06;3.13;;;1.90;;
37047;SDS011;23227;48.780;9.210;2023-06-19T04:33:09;4.10;;;2.20;;
37047;SDS011;23227;48.780;9.210;2023-06-19T04:36:12;3.50;;;2.10;;
37047;SDS011;23227;48.780;9.210;2023-06-19T04:39:15;2.90;;;2.20;;
37047;SDS011;23227;48.780;9.210;2023-06-19T04:42:19;3.25;;;2.20;;
37047;SDS011;23227;48.780;9.210;2023-06-19T04:45:22;3.70;;;2.07;;
37047;SDS011;23227;48.780;9.210;2023-06-19T04:48:25;3.10;;;2.03;;
37047;SDS011;23227;48.780;9.210;2023-06-19T04:54:31;2.75;;;1.98;;
37047;SDS011;23227;48.780;9.210;2023-06-19T04:57:35;8.03;;;2.80;;
37047;SDS011;23227;48.780;9.210;2023-06-19T05:00:39;2.67;;;2.30;;
37047;SDS011;23227;48.780;9.210;2023-06-19T05:03:42;4.25;;;2.03;;
37047;SDS011;23227;48.780;9.210;2023-06-19T05:06:46;2.57;;;1.97;;
37047;SDS011;23227;48.780;9.210;2023-06-19T05:09:49;6.35;;;2.72;;
37047;SDS011;23227;48.780;9.210;2023-06-19T05:12:53;4.03;;;2.22;;
37047;SDS011;23227;48.780;9.210;2023-06-19T05:15:56;2.50;;;1.70;;
37047;SDS011;23227;48.780;9.210;2023-06-19T05:22:01;4.90;;;1.90;;
37047;SDS011;23227;48.780;9.210;2023-06-19T05:25:05;2.37;;;2.03;;
37047;SDS011;23227;48.780;9.210;2023-06-19T05:28:10;2.37;;;1.90;;
37047;SDS011;23227;48.780;9.210;2023-06-19T05:31:12;6.37;;;2.20;;
37047;SDS011;23227;48.780;9.210;2023-06-19T05:34:15;4.82;;;1.80;;
37047;SDS011;23227;48.780;9.210;2023-06-19T05:37:18;4.13;;;2.00;;
37047;SDS011;23227;48.780;9.210;2023-06-19T05:40:23;6.13;;;2.10;;
37047;SDS011;23227;48.780;9.210;2023-06-19T05:46:30;2.20;;;1.57;;
37047;SDS011;23227;48.780;9.210;2023-06-19T05:49:32;2.67;;;1.80;;
37047;SDS011;23227;48.780;9.210;2023-06-19T05:52:35;3.00;;;1.77;;
37047;SDS011;23227;48.780;9.210;2023-06-19T05:55:38;2.55;;;1.80;;
37047;SDS011;23227;48.780;9.210;2023-06-19T05:58:42;4.38;;;1.95;;
37047;SDS011;23227;48.780;9.210;2023-06-19T06:01:44;2.00;;;1.80;;
37047;SDS011;23227;48.780;9.210;2023-06-19T06:04:47;3.08;;;1.98;;
37047;SDS011;23227;48.780;9.210;2023-06-19T06:07:50;2.20;;;1.80;;
37047;SDS011;23227;48.780;9.210;2023-06-19T06:13:57;2.38;;;1.90;;
37047;SDS011;23227;48.780;9.210;2023-06-19T06:16:59;3.88;;;1.88;;
37047;SDS011;23227;48.780;9.210;2023-06-19T06:20:02;3.13;;;2.35;;
37047;SDS011;23227;48.780;9.210;2023-06-19T06:23:10;4.78;;;2.55;;
37047;SDS011;23227;48.780;9.210;2023-06-19T06:26:13;4.43;;;2.10;;
37047;SDS011;23227;48.780;9.210;2023-06-19T06:29:17;5.72;;;2.42;;
37047;SDS011;23227;48.780;9.210;2023-06-19T06:32:20;3.90;;;1.90;;
37047;SDS011;23227;48.780;9.210;2023-06-19T06:35:23;4.53;;;1.80;;
37047;SDS011;23227;48.780;9.210;2023-06-19T06:41:28;2.50;;;1.80;;
37047;SDS011;23227;48.780;9.210;2023-06-19T06:44:32;2.08;;;1.30;;
37047;SDS011;23227;48.780;9.210;2023-06-19T06:47:35;2.28;;;1.70;;
37047;SDS011;23227;48.780;9.210;2023-06-19T06:53:40;2.00;;;1.53;;
37047;SDS011;23227;48.780;9.210;2023-06-19T06:56:42;2.97;;;1.50;;
37047;SDS011;23227;48.780;9.210;2023-06-19T06:59:50;1.48;;;1.17;;
37047;SDS011;23227;48.780;9.210;2023-06-19T07:02:53;1.65;;;1.30;;
37047;SDS011;23227;48.780;9.210;2023-06-19T07:05:56;2.95;;;1.38;;
37047;SDS011;23227;48.780;9.210;2023-06-19T07:08:58;1.50;;;1.40;;
37047;SDS011;23227;48.780;9.210;2023-06-19T07:12:02;4.85;;;1.85;;
37047;SDS011;23227;48.780;9.210;2023-06-19T07:15:07;3.03;;;1.40;;
37047;SDS011;23227;48.780;9.210;2023-06-19T07:18:11;1.88;;;1.25;;
37047;SDS011;23227;48.780;9.210;2023-06-19T07:21:13;2.03;;;1.35;;
37047;SDS011;23227;48.780;9.210;2023-06-19T07:24:16;3.25;;;1.40;;
37047;SDS011;23227;48.780;9.210;2023-06-19T07:27:19;1.30;;;1.20;;
37047;SDS011;23227;48.780;9.210;2023-06-19T07:30:23;2.45;;;1.15;;
37047;SDS011;23227;48.780;9.210;2023-06-19T07:33:26;3.85;;;1.50;;
37047;SDS011;23227;48.780;9.210;2023-06-19T07:36:29;2.35;;;1.33;;
37047;SDS011;23227;48.780;9.210;2023-06-19T07:39:32;1.60;;;1.33;;
37047;SDS011;23227;48.780;9.210;2023-06-19T07:42:34;1.20;;;1.10;;
37047;SDS011;23227;48.780;9.210;2023-06-19T07:45:38;3.13;;;1.25;;
37047;SDS011;23227;48.780;9.210;2023-06-19T07:48:41;1.98;;;1.25;;
37047;SDS011;23227;48.780;9.210;2023-06-19T07:51:44;1.70;;;1.35;;
37047;SDS011;23227;48.780;9.210;2023-06-19T07:57:56;2.40;;;1.52;;
37047;SDS011;23227;48.780;9.210;2023-06-19T08:01:00;1.10;;;1.00;;
37047;SDS011;23227;48.780;9.210;2023-06-19T08:04:03;1.52;;;1.20;;
37047;SDS011;23227;48.780;9.210;2023-06-19T08:07:05;3.55;;;1.50;;
37047;SDS011;23227;48.780;9.210;2023-06-19T08:10:08;3.03;;;1.60;;
37047;SDS011;23227;48.780;9.210;2023-06-19T08:13:15;4.75;;;1.88;;
37047;SDS011;23227;48.780;9.210;2023-06-19T08:16:19;3.20;;;1.77;;
37047;SDS011;23227;48.780;9.210;2023-06-19T08:19:22;1.40;;;1.30;;
37047;SDS011;23227;48.780;9.210;2023-06-19T08:22:24;3.25;;;1.50;;
37047;SDS011;23227;48.780;9.210;2023-06-19T08:28:30;6.13;;;1.40;;
37047;SDS011;23227;48.780;9.210;2023-06-19T08:31:34;1.42;;;1.33;;
37047;SDS011;23227;48.780;9.210;2023-06-19T08:34:37;3.55;;;1.70;;
37047;SDS011;23227;48.780;9.210;2023-06-19T08:40:42;1.55;;;1.45;;
37047;SDS011;23227;48.780;9.210;2023-06-19T08:43:45;1.75;;;1.52;;
37047;SDS011;23227;48.780;9.210;2023-06-19T08:46:49;4.88;;;1.60;;
37047;SDS011;23227;48.780;9.210;2023-06-19T08:49:52;3.47;;;1.40;;
37047;SDS011;23227;48.780;9.210;2023-06-19T08:52:55;1.90;;;1.50;;
37047;SDS011;23227;48.780;9.210;2023-06-19T08:55:58;1.92;;;1.40;;
37047;SDS011;23227;48.780;9.210;2023-06-19T08:59:07;3.20;;;1.60;;
37047;SDS011;23227;48.780;9.210;2023-06-19T09:02:12;2.88;;;1.75;;
37047;SDS011;23227;48.780;9.210;2023-06-19T09:05:16;2.58;;;1.92;;
37047;SDS011;23227;48.780;9.210;2023-06-19T09:08:19;2.10;;;1.88;;
37047;SDS011;23227;48.780;9.210;2023-06-19T09:11:23;2.00;;;1.80;;
37047;SDS011;23227;48.780;9.210;2023-06-19T09:14:32;3.65;;;1.60;;
37047;SDS011;23227;48.780;9.210;2023-06-19T09:17:37;3.95;;;1.95;;
37047;SDS011;23227;48.780;9.210;2023-06-19T09:20:40;2.75;;;1.88;;
37047;SDS011;23227;48.780;9.210;2023-06-19T09:23:45;2.47;;;1.90;;
37047;SDS011;23227;48.780;9.210;2023-06-19T09:26:50;1.98;;;1.50;;
37047;SDS011;23227;48.780;9.210;2023-06-19T09:29:53;2.03;;;1.50;;
37047;SDS011;23227;48.780;9.210;2023-06-19T09:33:05;1.83;;;1.40;;
37047;SDS011;23227;48.780;9.210;2023-06-19T09:36:09;2.60;;;1.70;;
37047;SDS011;23227;48.780;9.210;2023-06-19T09:42:14;1.92;;;1.73;;
37047;SDS011;23227;48.780;9.210;2023-06-19T09:45:17;2.15;;;1.52;;
37047;SDS011;23227;48.780;9.210;2023-06-19T09:48:22;6.13;;;1.73;;
37047;SDS011;23227;48.780;9.210;2023-06-19T09:51:30;2.13;;;1.70;;
37047;SDS011;23227;48.780;9.210;2023-06-19T09:54:33;6.15;;;2.05;;
37047;SDS011;23227;48.780;9.210;2023-06-19T09:57:37;2.05;;;1.80;;
37047;SDS011;23227;48.780;9.210;2023-06-19T10:00:40;2.55;;;1.98;;
37047;SDS011;23227;48.780;9.210;2023-06-19T10:03:44;4.55;;;2.00;;
37047;SDS011;23227;48.780;9.210;2023-06-19T10:06:47;2.08;;;1.67;;
37047;SDS011;23227;48.780;9.210;2023-06-19T10:10:00;4.05;;;1.67;;
37047;SDS011;23227;48.780;9.210;2023-06-19T10:13:14;2.53;;;2.13;;
37047;SDS011;23227;48.780;9.210;2023-06-19T10:16:21;1.95;;;1.77;;
37047;SDS011;23227;48.780;9.210;2023-06-19T10:19:26;1.80;;;1.70;;
37047;SDS011;23227;48.780;9.210;2023-06-19T10:22:29;4.20;;;2.15;;
37047;SDS011;23227;48.780;9.210;2023-06-19T10:25:33;4.95;;;1.90;;
37047;SDS011;23227;48.780;9.210;2023-06-19T10:28:36;1.77;;;1.63;;
37047;SDS011;23227;48.780;9.210;2023-06-19T10:31:39;4.78;;;1.90;;
37047;SDS011;23227;48.780;9.210;2023-06-19T10:34:44;2.20;;;2.00;;
37047;SDS011;23227;48.780;9.210;2023-06-19T10:37:48;2.63;;;1.92;;
37047;SDS011;23227;48.780;9.210;2023-06-19T10:40:51;5.03;;;2.30;;
37047;SDS011;23227;48.780;9.210;2023-06-19T10:43:54;8.73;;;2.78;;
37047;SDS011;23227;48.780;9.210;2023-06-19T10:46:58;4.63;;;2.65;;
37047;SDS011;23227;48.780;9.210;2023-06-19T10:50:02;4.15;;;1.95;;
37047;SDS011;23227;48.780;9.210;2023-06-19T10:53:05;3.08;;;2.30;;
37047;SDS011;23227;48.780;9.210;2023-06-19T10:56:08;2.65;;;2.38;;
37047;SDS011;23227;48.780;9.210;2023-06-19T10:59:11;3.53;;;2.28;;
37047;SDS011;23227;48.780;9.210;2023-06-19T11:02:17;6.97;;;2.35;;
37047;SDS011;23227;48.780;9.210;2023-06-19T11:05:21;2.45;;;2.10;;
37047;SDS011;23227;48.780;9.210;2023-06-19T11:08:25;3.03;;;2.17;;
37047;SDS011;23227;48.780;9.210;2023-06-19T11:11:34;3.28;;;2.03;;
37047;SDS011;23227;48.780;9.210;2023-06-19T11:14:40;3.05;;;2.20;;
37047;SDS011;23227;48.780;9.210;2023-06-19T11:17:43;3.25;;;2.08;;
37047;SDS011;23227;48.780;9.210;2023-06-19T11:20:48;6.22;;;2.83;;
37047;SDS011;23227;48.780;9.210;2023-06-19T11:23:51;3.35;;;1.95;;
37047;SDS011;23227;48.780;9.210;2023-06-19T11:26:55;3.10;;;2.00;;
37047;SDS011;23227;48.780;9.210;2023-06-19T11:30:00;2.88;;;2.40;;
37047;SDS011;23227;48.780;9.210;2023-06-19T11:33:14;2.30;;;1.90;;
37047;SDS011;23227;48.780;9.210;2023-06-19T11:36:19;2.38;;;1.90;;
37047;SDS011;23227;48.780;9.210;2023-06-19T11:39:22;2.65;;;2.00;;
37047;SDS011;23227;48.780;9.210;2023-06-19T11:42:24;4.28;;;2.58;;
37047;SDS011;23227;48.780;9.210;2023-06-19T11:45:27;2.25;;;2.05;;
37047;SDS011;23227;48.780;9.210;2023-06-19T11:48:30;2.28;;;1.90;;
37047;SDS011;23227;48.780;9.210;2023-06-19T11:51:34;2.42;;;2.22;;
37047;SDS011;23227;48.780;9.210;2023-06-19T11:54:37;4.82;;;2.42;;
37047;SDS011;23227;48.780;9.210;2023-06-19T11:57:39;2.58;;;2.10;;
37047;SDS011;23227;48.780;9.210;2023-06-19T12:00:42;6.28;;;1.70;;
37047;SDS011;23227;48.780;9.210;2023-06-19T12:03:45;4.55;;;2.47;;
37047;SDS011;23227;48.780;9.210;2023-06-19T12:06:50;2.28;;;1.90;;
37047;SDS011;23227;48.780;9.210;2023-06-19T12:09:54;3.58;;;1.90;;
37047;SDS011;23227;48.780;9.210;2023-06-19T12:12:57;2.05;;;1.88;;
37047;SDS011;23227;48.780;9.210;2023-06-19T12:15:59;2.40;;;1.73;;
37047;SDS011;23227;48.780;9.210;2023-06-19T12:19:02;2.65;;;1.98;;
37047;SDS011;23227;48.780;9.210;2023-06-19T12:22:06;4.05;;;2.20;;
37047;SDS011;23227;48.780;9.210;2023-06-19T12:25:09;2.53;;;2.10;;
37047;SDS011;23227;48.780;9.210;2023-06-19T12:28:12;6.22;;;2.20;;
37047;SDS011;23227;48.780;9.210;2023-06-19T12:31:19;3.47;;;2.40;;
37047;SDS011;23227;48.780;9.210;2023-06-19T12:34:22;3.10;;;2.00;;
37047;SDS011;23227;48.780;9.210;2023-06-19T12:37:32;2.20;;;1.95;;
37047;SDS011;23227;48.780;9.210;2023-06-19T12:40:35;4.63;;;2.03;;
37047;SDS011;23227;48.780;9.210;2023-06-19T12:43:38;3.15;;;2.20;;
37047;SDS011;23227;48.780;9.210;2023-06-19T12:46:41;4.78;;;1.95;;
37047;SDS011;23227;48.780;9.210;2023-06-19T12:49:44;3.55;;;1.92;;
37047;SDS011;23227;48.780;9.210;2023-06-19T12:52:48;6.13;;;2.22;;
37047;SDS011;23227;48.780;9.210;2023-06-19T12:55:51;3.28;;;2.20;;
37047;SDS011;23227;48.780;9.210;2023-06-19T12:59:03;8.68;;;2.00;;
37047;SDS011;23227;48.780;9.210;2023-06-19T13:02:05;7.07;;;2.83;;
37047;SDS011;23227;48.780;9.210;2023-06-19T13:05:08;2.90;;;1.83;;
37047;SDS011;23227;48.780;9.210;2023-06-19T13:08:12;3.55;;;2.03;;
37047;SDS011;23227;48.780;9.210;2023-06-19T13:11:15;2.97;;;2.05;;
37047;SDS011;23227;48.780;9.210;2023-06-19T13:14:18;6.00;;;1.80;;
37047;SDS011;23227;48.780;9.210;2023-06-19T13:17:21;6.18;;;2.00;;
37047;SDS011;23227;48.780;9.210;2023-06-19T13:20:23;5.72;;;2.35;;
37047;SDS011;23227;48.780;9.210;2023-06-19T13:23:28;2.50;;;2.15;;
37047;SDS011;23227;48.780;9.210;2023-06-19T13:26:32;4.80;;;2.20;;
37047;SDS011;23227;48.780;9.210;2023-06-19T13:29:34;2.92;;;2.10;;
37047;SDS011;23227;48.780;9.210;2023-06-19T13:32:37;1.98;;;1.83;;
37047;SDS011;23227;48.780;9.210;2023-06-19T13:35:40;3.45;;;2.15;;
37047;SDS011;23227;48.780;9.210;2023-06-19T13:38:44;2.67;;;1.83;;
37047;SDS011;23227;48.780;9.210;2023-06-19T13:41:47;2.83;;;2.28;;
37047;SDS011;23227;48.780;9.210;2023-06-19T13:44:50;3.45;;;2.30;;
37047;SDS011;23227;48.780;9.210;2023-06-19T13:47:52;6.55;;;2.53;;
37047;SDS011;23227;48.780;9.210;2023-06-19T13:50:55;2.00;;;1.58;;
37047;SDS011;23227;48.780;9.210;2023-06-19T13:54:00;4.47;;;2.03;;
37047;SDS011;23227;48.780;9.210;2023-06-19T13:57:04;3.72;;;1.92;;
37047;SDS011;23227;48.780;9.210;2023-06-19T14:00:08;2.22;;;1.80;;
37047;SDS011;23227;48.780;9.210;2023-06-19T14:03:12;4.43;;;2.05;;
37047;SDS011;23227;48.780;9.210;2023-06-19T14:06:16;5.78;;;2.20;;
37047;SDS011;23227;48.780;9.210;2023-06-19T14:09:20;4.10;;;1.92;;
37047;SDS011;23227;48.780;9.210;2023-06-19T14:12:23;4.40;;;2.03;;
37047;SDS011;23227;48.780;9.210;2023-06-19T14:15:25;2.08;;;1.88;;
37047;SDS011;23227;48.780;9.210;2023-06-19T14:18:28;2.35;;;1.77;;
37047;SDS011;23227;48.780;9.210;2023-06-19T14:21:31;2.17;;;1.88;;
37047;SDS011;23227;48.780;9.210;2023-06-19T14:24:35;3.90;;;1.75;;
37047;SDS011;23227;48.780;9.210;2023-06-19T14:27:38;2.55;;;1.88;;
37047;SDS011;23227;48.780;9.210;2023-06-19T14:30:41;4.88;;;2.00;;
37047;SDS011;23227;48.780;9.210;2023-06-19T14:33:43;3.67;;;2.03;;
37047;SDS011;23227;48.780;9.210;2023-06-19T14:36:46;2.75;;;1.65;;
37047;SDS011;23227;48.780;9.210;2023-06-19T14:39:51;3.38;;;1.80;;
37047;SDS011;23227;48.780;9.210;2023-06-19T14:42:53;2.10;;;1.98;;
37047;SDS011;23227;48.780;9.210;2023-06-19T14:45:56;4.43;;;2.28;;
37047;SDS011;23227;48.780;9.210;2023-06-19T14:48:59;5.18;;;2.10;;
37047;SDS011;23227;48.780;9.210;2023-06-19T14:52:02;2.05;;;1.83;;
37047;SDS011;23227;48.780;9.210;2023-06-19T14:55:07;7.68;;;1.83;;
37047;SDS011;23227;48.780;9.210;2023-06-19T14:58:10;3.45;;;1.77;;
37047;SDS011;23227;48.780;9.210;2023-06-19T15:01:13;3.83;;;2.10;;
37047;SDS011;23227;48.780;9.210;2023-06-19T15:04:16;3.05;;;1.80;;
37047;SDS011;23227;48.780;9.210;2023-06-19T15:07:19;5.13;;;2.47;;
37047;SDS011;23227;48.780;9.210;2023-06-19T15:10:23;2.58;;;2.38;;
37047;SDS011;23227;48.780;9.210;2023-06-19T15:13:26;4.53;;;2.10;;
37047;SDS011;23227;48.780;9.210;2023-06-19T15:16:29;3.95;;;2.08;;
37047;SDS011;23227;48.780;9.210;2023-06-19T15:19:31;2.45;;;2.00;;
37047;SDS011;23227;48.780;9.210;2023-06-19T15:22:34;4.35;;;2.13;;
37047;SDS011;23227;48.780;9.210;2023-06-19T15:25:39;3.33;;;1.90;;
37047;SDS011;23227;48.780;9.210;2023-06-19T15:28:42;4.00;;;1.80;;
37047;SDS011;23227;48.780;9.210;2023-06-19T15:31:45;4.20;;;1.77;;
37047;SDS011;23227;48.780;9.210;2023-06-19T15:34:48;5.47;;;2.17;;
37047;SDS011;23227;48.780;9.210;2023-06-19T15:37:51;2.35;;;2.13;;
37047;SDS011;23227;48.780;9.210;2023-06-19T15:40:55;2.63;;;1.77;;
37047;SDS011;23227;48.780;9.210;2023-06-19T15:43:58;6.18;;;1.90;;
37047;SDS011;23227;48.780;9.210;2023-06-19T15:47:01;3.28;;;1.90;;
37047;SDS011;23227;48.780;9.210;2023-06-19T15:50:04;3.22;;;2.13;;
37047;SDS011;23227;48.780;9.210;2023-06-19T15:53:08;3.78;;;1.88;;
37047;SDS011;23227;48.780;9.210;2023-06-19T15:56:12;2.95;;;1.70;;
37047;SDS011;23227;48.780;9.210;2023-06-19T15:59:15;4.35;;;1.60;;
37047;SDS011;23227;48.780;9.210;2023-06-19T16:02:19;2.00;;;1.80;;
37047;SDS011;23227;48.780;9.210;2023-06-19T16:05:22;3.40;;;1.75;;
37047;SDS011;23227;48.780;9.210;2023-06-19T16:08:27;4.80;;;2.00;;
37047;SDS011;23227;48.780;9.210;2023-06-19T16:11:31;3.58;;;2.15;;
37047;SDS011;23227;48.780;9.210;2023-06-19T16:14:34;4.00;;;2.30;;
37047;SDS011;23227;48.780;9.210;2023-06-19T16:17:37;2.25;;;2.05;;
37047;SDS011;23227;48.780;9.210;2023-06-19T16:20:39;2.25;;;2.05;;
37047;SDS011;23227;48.780;9.210;2023-06-19T16:23:42;9.90;;;2.50;;
37047;SDS011;23227;48.780;9.210;2023-06-19T16:26:46;2.03;;;1.65;;
37047;SDS011;23227;48.780;9.210;2023-06-19T16:29:49;3.10;;;2.25;;
37047;SDS011;23227;48.780;9.210;2023-06-19T16:32:52;2.85;;;2.55;;
37047;SDS011;23227;48.780;9.210;2023-06-19T16:35:55;2.38;;;2.17;;
37047;SDS011;23227;48.780;9.210;2023-06-19T16:38:58;3.05;;;2.22;;
37047;SDS011;23227;48.780;9.210;2023-06-19T16:42:05;3.13;;;2.85;;
37047;SDS011;23227;48.780;9.210;2023-06-19T16:45:08;4.13;;;2.58;;
37047;SDS011;23227;48.780;9.210;2023-06-19T16:48:12;4.63;;;2.78;;
37047;SDS011;23227;48.780;9.210;2023-06-19T16:51:14;9.65;;;2.80;;
37047;SDS011;23227;48.780;9.210;2023-06-19T16:54:17;5.00;;;2.45;;
37047;SDS011;23227;48.780;9.210;2023-06-19T16:57:22;4.40;;;2.50;;
37047;SDS011;23227;48.780;9.210;2023-06-19T17:00:27;4.22;;;2.10;;
37047;SDS011;23227;48.780;9.210;2023-06-19T17:03:30;3.30;;;2.38;;
37047;SDS011;23227;48.780;9.210;2023-06-19T17:06:32;5.63;;;3.00;;
37047;SDS011;23227;48.780;9.210;2023-06-19T17:09:36;3.80;;;2.90;;
37047;SDS011;23227;48.780;9.210;2023-06-19T17:12:40;3.10;;;2.67;;
37047;SDS011;23227;48.780;9.210;2023-06-19T17:15:43;3.45;;;2.60;;
37047;SDS011;23227;48.780;9.210;2023-06-19T17:18:46;7.53;;;3.10;;
37047;SDS011;23227;48.780;9.210;2023-06-19T17:21:49;3.53;;;2.80;;
37047;SDS011;23227;48.780;9.210;2023-06-19T17:24:52;5.70;;;2.90;;
37047;SDS011;23227;48.780;9.210;2023-06-19T17:27:57;9.63;;;3.42;;
37047;SDS011;23227;48.780;9.210;2023-06-19T17:30:59;6.78;;;2.75;;
37047;SDS011;23227;48.780;9.210;2023-06-19T17:34:02;3.35;;;2.78;;
37047;SDS011;23227;48.780;9.210;2023-06-19T17:37:05;4.35;;;3.20;;
37047;SDS011;23227;48.780;9.210;2023-06-19T17:40:08;4.15;;;2.80;;
37047;SDS011;23227;48.780;9.210;2023-06-19T17:43:15;4.70;;;3.00;;
37047;SDS011;23227;48.780;9.210;2023-06-19T17:46:18;4.30;;;3.47;;
37047;SDS011;23227;48.780;9.210;2023-06-19T17:49:21;4.15;;;2.90;;
37047;SDS011;23227;48.780;9.210;2023-06-19T17:52:24;3.13;;;2.65;;
37047;SDS011;23227;48.780;9.210;2023-06-19T17:55:27;4.25;;;3.00;;
37047;SDS011;23227;48.780;9.210;2023-06-19T17:58:33;3.28;;;2.85;;
37047;SDS011;23227;48.780;9.210;2023-06-19T18:01:36;6.82;;;3.25;;
37047;SDS011;23227;48.780;9.210;2023-06-19T18:04:38;4.97;;;2.80;;
37047;SDS011;23227;48.780;9.210;2023-06-19T18:07:41;4.97;;;2.97;;
37047;SDS011;23227;48.780;9.210;2023-06-19T18:10:44;3.85;;;3.10;;
37047;SDS011;23227;48.780;9.210;2023-06-19T18:13:49;7.63;;;3.95;;
37047;SDS011;23227;48.780;9.210;2023-06-19T18:16:51;6.05;;;3.40;;
37047;SDS011;23227;48.780;9.210;2023-06-19T18:19:54;3.58;;;2.88;;
37047;SDS011;23227;48.780;9.210;2023-06-19T18:22:57;4.07;;;2.63;;
37047;SDS011;23227;48.780;9.210;2023-06-19T18:26:00;3.45;;;3.15;;
37047;SDS011;23227;48.780;9.210;2023-06-19T18:29:04;5.55;;;3.22;;
37047;SDS011;23227;48.780;9.210;2023-06-19T18:32:07;3.58;;;2.60;;
37047;SDS011;23227;48.780;9.210;2023-06-19T18:35:10;3.63;;;2.90;;
37047;SDS011;23227;48.780;9.210;2023-06-19T18:38:13;3.42;;;2.97;;
37047;SDS011;23227;48.780;9.210;2023-06-19T18:41:16;3.70;;;2.80;;
37047;SDS011;23227;48.780;9.210;2023-06-19T18:44:21;3.85;;;2.75;;
37047;SDS011;23227;48.780;9.210;2023-06-19T18:47:23;4.88;;;2.95;;
37047;SDS011;23227;48.780;9.210;2023-06-19T18:50:26;4.32;;;3.00;;
37047;SDS011;23227;48.780;9.210;2023-06-19T18:53:29;5.35;;;3.63;;
37047;SDS011;23227;48.780;9.210;2023-06-19T18:56:31;4.97;;;3.30;;
37047;SDS011;23227;48.780;9.210;2023-06-19T18:59:35;3.60;;;3.08;;
37047;SDS011;23227;48.780;9.210;2023-06-19T19:02:38;4.60;;;3.45;;
37047;SDS011;23227;48.780;9.210;2023-06-19T19:05:42;3.80;;;2.78;;
37047;SDS011;23227;48.780;9.210;2023-06-19T19:08:44;5.18;;;3.17;;
37047;SDS011;23227;48.780;9.210;2023-06-19T19:11:47;5.05;;;3.35;;
37047;SDS011;23227;48.780;9.210;2023-06-19T19:14:53;3.88;;;3.22;;
37047;SDS011;23227;48.780;9.210;2023-06-19T19:17:57;4.50;;;3.58;;
37047;SDS011;23227;48.780;9.210;2023-06-19T19:24:02;7.88;;;4.05;;
37047;SDS011;23227;48.780;9.210;2023-06-19T19:27:05;5.95;;;4.10;;
37047;SDS011;23227;48.780;9.210;2023-06-19T19:30:10;4.90;;;3.22;;
37047;SDS011;23227;48.780;9.210;2023-06-19T19:33:13;5.18;;;3.63;;
37047;SDS011;23227;48.780;9.210;2023-06-19T19:36:17;6.45;;;3.58;;
37047;SDS011;23227;48.780;9.210;2023-06-19T19:39:20;4.05;;;3.50;;